sensor_id;sensor_type;location;lat;lon;timestamp;temperature;humidity
20418;DHT22;10368;51.436;6.774;2023-05-17T12:48:08;16.90;67.70
20418;DHT22;10368;51.436;6.774;2023-05-17T12:50:35;18.80;58.80
20418;DHT22;10368;51.436;6.774;2023-05-17T12:53:07;18.70;59.90
20418;DHT22;10368;51.436;6.774;2023-05-17T12:55:37;19.10;61.70
20418;DHT22;10368;51.436;6.774;2023-05-17T12:58:04;17.40;61.00
20418;DHT22;10368;51.436;6.774;2023-05-17T13:00:31;17.80;60.90
20418;DHT22;10368;51.436;6.774;2023-05-17T13:02:58;17.20;63.60
20418;DHT22;10368;51.436;6.774;2023-05-17T13:05:25;17.60;61.30
20418;DHT22;10368;51.436;6.774;2023-05-17T13:07:52;18.90;60.20
20418;DHT22;10368;51.436;6.774;2023-05-17T13:10:24;18.60;58.70
20418;DHT22;10368;51.436;6.774;2023-05-17T13:12:58;18.60;58.00
20418;DHT22;10368;51.436;6.774;2023-05-17T13:15:27;19.70;56.00
20418;DHT22;10368;51.436;6.774;2023-05-17T13:17:55;19.40;55.80
20418;DHT22;10368;51.436;6.774;2023-05-17T13:20:22;18.50;57.80
20418;DHT22;10368;51.436;6.774;2023-05-17T13:22:49;17.70;58.80
20418;DHT22;10368;51.436;6.774;2023-05-17T13:25:17;17.10;62.30
20418;DHT22;10368;51.436;6.774;2023-05-17T13:27:45;17.20;62.10
20418;DHT22;10368;51.436;6.774;2023-05-17T13:30:15;18.40;57.50
20418;DHT22;10368;51.436;6.774;2023-05-17T13:32:42;19.30;56.00
20418;DHT22;10368;51.436;6.774;2023-05-17T13:35:10;19.00;56.30
20418;DHT22;10368;51.436;6.774;2023-05-17T13:37:36;19.00;55.80
20418;DHT22;10368;51.436;6.774;2023-05-17T13:40:04;19.20;55.50
20418;DHT22;10368;51.436;6.774;2023-05-17T13:42:31;19.30;55.70
20418;DHT22;10368;51.436;6.774;2023-05-17T13:44:58;18.60;56.70
20418;DHT22;10368;51.436;6.774;2023-05-17T13:47:27;17.90;57.50
20418;DHT22;10368;51.436;6.774;2023-05-17T13:50:00;17.80;57.40
20418;DHT22;10368;51.436;6.774;2023-05-17T13:52:29;17.90;58.80
20418;DHT22;10368;51.436;6.774;2023-05-17T13:54:56;19.50;56.30
20418;DHT22;10368;51.436;6.774;2023-05-17T13:57:23;19.10;56.80
20418;DHT22;10368;51.436;6.774;2023-05-17T13:59:50;19.50;55.90
20418;DHT22;10368;51.436;6.774;2023-05-17T14:02:17;19.70;55.00
20418;DHT22;10368;51.436;6.774;2023-05-17T14:04:44;19.70;55.70
20418;DHT22;10368;51.436;6.774;2023-05-17T14:07:11;18.80;58.00
20418;DHT22;10368;51.436;6.774;2023-05-17T14:09:38;18.50;60.60
20418;DHT22;10368;51.436;6.774;2023-05-17T14:12:05;20.00;55.00
20418;DHT22;10368;51.436;6.774;2023-05-17T14:14:32;18.60;57.60
20418;DHT22;10368;51.436;6.774;2023-05-17T14:16:59;19.50;54.20
20418;DHT22;10368;51.436;6.774;2023-05-17T14:19:27;19.60;54.30
20418;DHT22;10368;51.436;6.774;2023-05-17T14:21:54;19.70;53.00
20418;DHT22;10368;51.436;6.774;2023-05-17T14:24:21;19.80;54.50
20418;DHT22;10368;51.436;6.774;2023-05-17T14:26:48;20.00;53.30
20418;DHT22;10368;51.436;6.774;2023-05-17T14:29:15;20.10;53.30
20418;DHT22;10368;51.436;6.774;2023-05-17T14:31:42;19.50;53.80
20418;DHT22;10368;51.436;6.774;2023-05-17T14:34:09;20.20;53.20
20418;DHT22;10368;51.436;6.774;2023-05-17T14:36:36;20.20;53.30
20418;DHT22;10368;51.436;6.774;2023-05-17T14:39:05;20.30;51.60
20418;DHT22;10368;51.436;6.774;2023-05-17T14:41:31;20.20;52.30
20418;DHT22;10368;51.436;6.774;2023-05-17T14:43:58;19.70;51.90
20418;DHT22;10368;51.436;6.774;2023-05-17T14:46:25;20.20;52.00
20418;DHT22;10368;51.436;6.774;2023-05-17T14:48:52;20.20;52.00
20418;DHT22;10368;51.436;6.774;2023-05-17T14:51:19;20.60;51.60
20418;DHT22;10368;51.436;6.774;2023-05-17T20:23:43;20.10;52.00
20418;DHT22;10368;51.436;6.774;2023-05-17T20:26:12;13.00;78.90
20418;DHT22;10368;51.436;6.774;2023-05-17T20:28:43;12.70;80.40
20418;DHT22;10368;51.436;6.774;2023-05-17T20:31:10;12.90;80.30
20418;DHT22;10368;51.436;6.774;2023-05-17T20:33:37;12.90;80.10
20418;DHT22;10368;51.436;6.774;2023-05-17T20:36:04;12.90;80.80
20418;DHT22;10368;51.436;6.774;2023-05-17T20:38:31;12.80;79.90
20418;DHT22;10368;51.436;6.774;2023-05-17T20:40:58;12.60;81.30
20418;DHT22;10368;51.436;6.774;2023-05-17T20:43:26;12.70;81.20
20418;DHT22;10368;51.436;6.774;2023-05-17T20:45:54;12.60;81.10
20418;DHT22;10368;51.436;6.774;2023-05-17T20:48:22;12.70;81.90
20418;DHT22;10368;51.436;6.774;2023-05-17T20:50:49;12.60;82.50
20418;DHT22;10368;51.436;6.774;2023-05-17T20:53:16;12.50;82.80
20418;DHT22;10368;51.436;6.774;2023-05-17T20:55:42;12.30;82.80
20418;DHT22;10368;51.436;6.774;2023-05-17T20:58:10;12.60;82.90
20418;DHT22;10368;51.436;6.774;2023-05-17T22:53:55;11.10;95.50
20418;DHT22;10368;51.436;6.774;2023-05-17T22:56:23;10.80;97.30
20418;DHT22;10368;51.436;6.774;2023-05-17T22:58:50;10.60;98.30
20418;DHT22;10368;51.436;6.774;2023-05-17T23:01:17;10.70;98.30
20418;DHT22;10368;51.436;6.774;2023-05-17T23:03:43;10.70;97.60
20418;DHT22;10368;51.436;6.774;2023-05-17T23:06:11;10.70;97.30
20418;DHT22;10368;51.436;6.774;2023-05-17T23:18:29;10.30;97.90
20418;DHT22;10368;51.436;6.774;2023-05-17T23:20:56;10.30;98.00
20418;DHT22;10368;51.436;6.774;2023-05-17T23:23:24;10.50;97.70
20418;DHT22;10368;51.436;6.774;2023-05-17T23:25:51;10.30;97.70
20418;DHT22;10368;51.436;6.774;2023-05-17T23:28:22;10.20;99.30
20418;DHT22;10368;51.436;6.774;2023-05-17T23:30:52;10.50;98.30
20418;DHT22;10368;51.436;6.774;2023-05-17T23:33:20;10.40;98.00
20418;DHT22;10368;51.436;6.774;2023-05-17T23:35:47;10.30;98.60
20418;DHT22;10368;51.436;6.774;2023-05-17T23:38:13;10.30;98.60
20418;DHT22;10368;51.436;6.774;2023-05-17T23:40:40;10.30;99.30
20418;DHT22;10368;51.436;6.774;2023-05-17T23:43:07;10.20;99.40
